sensor_id;sensor_type;location;lat;lon;timestamp;P1;durP1;ratioP1;P2;durP2;ratioP2
13250;SDS011;6692;50.710;7.180;2024-03-07T00:00:07;18.63;;;12.33;;
13250;SDS011;6692;50.710;7.180;2024-03-07T00:02:09;13.87;;;10.40;;
13250;SDS011;6692;50.710;7.180;2024-03-07T00:04:10;15.83;;;11.23;;
13250;SDS011;6692;50.710;7.180;2024-03-07T00:06:11;15.77;;;11.20;;
13250;SDS011;6692;50.710;7.180;2024-03-07T00:08:11;15.50;;;11.50;;
13250;SDS011;6692;50.710;7.180;2024-03-07T00:10:12;17.80;;;10.77;;
13250;SDS011;6692;50.710;7.180;2024-03-07T00:12:14;18.20;;;11.83;;
13250;SDS011;6692;50.710;7.180;2024-03-07T00:14:14;17.73;;;11.40;;
13250;SDS011;6692;50.710;7.180;2024-03-07T00:16:15;16.47;;;11.20;;
13250;SDS011;6692;50.710;7.180;2024-03-07T00:18:16;14.50;;;10.70;;
13250;SDS011;6692;50.710;7.180;2024-03-07T00:20:16;16.40;;;10.77;;
13250;SDS011;6692;50.710;7.180;2024-03-07T00:22:17;14.03;;;9.97;;
13250;SDS011;6692;50.710;7.180;2024-03-07T00:24:18;16.50;;;10.70;;
13250;SDS011;6692;50.710;7.180;2024-03-07T00:26:18;17.80;;;11.73;;
13250;SDS011;6692;50.710;7.180;2024-03-07T00:28:19;15.67;;;11.13;;
13250;SDS011;6692;50.710;7.180;2024-03-07T00:30:20;14.83;;;10.70;;
13250;SDS011;6692;50.710;7.180;2024-03-07T00:32:20;15.07;;;10.60;;
13250;SDS011;6692;50.710;7.180;2024-03-07T00:34:21;14.63;;;10.27;;
13250;SDS011;6692;50.710;7.180;2024-03-07T00:36:22;13.53;;;9.47;;
13250;SDS011;6692;50.710;7.180;2024-03-07T00:38:23;15.27;;;10.27;;
13250;SDS011;6692;50.710;7.180;2024-03-07T00:40:25;14.70;;;10.07;;
13250;SDS011;6692;50.710;7.180;2024-03-07T00:42:26;12.60;;;9.27;;
13250;SDS011;6692;50.710;7.180;2024-03-07T00:44:26;16.57;;;9.80;;
13250;SDS011;6692;50.710;7.180;2024-03-07T00:46:27;12.83;;;9.57;;
13250;SDS011;6692;50.710;7.180;2024-03-07T00:48:27;12.00;;;9.20;;
13250;SDS011;6692;50.710;7.180;2024-03-07T00:50:28;14.27;;;9.47;;
13250;SDS011;6692;50.710;7.180;2024-03-07T00:52:29;12.40;;;9.57;;
13250;SDS011;6692;50.710;7.180;2024-03-07T00:54:29;14.80;;;10.17;;
13250;SDS011;6692;50.710;7.180;2024-03-07T00:56:31;16.00;;;10.57;;
13250;SDS011;6692;50.710;7.180;2024-03-07T00:58:32;16.10;;;10.20;;
13250;SDS011;6692;50.710;7.180;2024-03-07T01:00:32;16.27;;;10.90;;
13250;SDS011;6692;50.710;7.180;2024-03-07T01:02:34;14.23;;;10.47;;
13250;SDS011;6692;50.710;7.180;2024-03-07T01:04:34;16.23;;;10.87;;
13250;SDS011;6692;50.710;7.180;2024-03-07T01:06:35;15.17;;;11.17;;
13250;SDS011;6692;50.710;7.180;2024-03-07T01:08:37;15.47;;;11.30;;
13250;SDS011;6692;50.710;7.180;2024-03-07T01:10:37;16.70;;;11.57;;
13250;SDS011;6692;50.710;7.180;2024-03-07T01:12:38;16.77;;;11.87;;
13250;SDS011;6692;50.710;7.180;2024-03-07T01:14:39;17.33;;;11.30;;
13250;SDS011;6692;50.710;7.180;2024-03-07T01:16:39;14.40;;;10.90;;
13250;SDS011;6692;50.710;7.180;2024-03-07T01:18:40;16.67;;;11.13;;
13250;SDS011;6692;50.710;7.180;2024-03-07T01:20:41;16.37;;;11.17;;
13250;SDS011;6692;50.710;7.180;2024-03-07T01:22:42;16.47;;;11.73;;
13250;SDS011;6692;50.710;7.180;2024-03-07T01:24:43;16.37;;;11.47;;
13250;SDS011;6692;50.710;7.180;2024-03-07T01:26:44;19.03;;;13.20;;
13250;SDS011;6692;50.710;7.180;2024-03-07T01:28:44;16.27;;;11.83;;
13250;SDS011;6692;50.710;7.180;2024-03-07T01:30:45;19.47;;;12.47;;
13250;SDS011;6692;50.710;7.180;2024-03-07T01:32:46;19.37;;;12.17;;
13250;SDS011;6692;50.710;7.180;2024-03-07T01:34:46;18.07;;;11.90;;
13250;SDS011;6692;50.710;7.180;2024-03-07T01:36:47;16.33;;;11.03;;
13250;SDS011;6692;50.710;7.180;2024-03-07T01:38:48;16.30;;;11.30;;
13250;SDS011;6692;50.710;7.180;2024-03-07T01:40:48;15.60;;;10.53;;
13250;SDS011;6692;50.710;7.180;2024-03-07T01:42:49;16.90;;;11.20;;
13250;SDS011;6692;50.710;7.180;2024-03-07T01:44:50;16.33;;;11.70;;
13250;SDS011;6692;50.710;7.180;2024-03-07T01:46:50;16.17;;;10.53;;
13250;SDS011;6692;50.710;7.180;2024-03-07T01:48:51;14.73;;;10.20;;
13250;SDS011;6692;50.710;7.180;2024-03-07T01:50:52;16.10;;;10.43;;
13250;SDS011;6692;50.710;7.180;2024-03-07T01:52:53;18.80;;;11.03;;
13250;SDS011;6692;50.710;7.180;2024-03-07T01:57:31;16.30;;;10.80;;
13250;SDS011;6692;50.710;7.180;2024-03-07T01:59:33;14.23;;;10.53;;
13250;SDS011;6692;50.710;7.180;2024-03-07T02:01:33;17.37;;;11.10;;
13250;SDS011;6692;50.710;7.180;2024-03-07T02:03:34;17.60;;;11.27;;
13250;SDS011;6692;50.710;7.180;2024-03-07T02:08:13;15.27;;;10.97;;
13250;SDS011;6692;50.710;7.180;2024-03-07T02:14:59;16.42;;;11.52;;
13250;SDS011;6692;50.710;7.180;2024-03-07T02:17:00;16.43;;;10.63;;
13250;SDS011;6692;50.710;7.180;2024-03-07T02:19:00;16.87;;;11.60;;
13250;SDS011;6692;50.710;7.180;2024-03-07T02:21:05;17.00;;;12.00;;
13250;SDS011;6692;50.710;7.180;2024-03-07T02:23:02;18.07;;;11.87;;
13250;SDS011;6692;50.710;7.180;2024-03-07T02:25:03;18.87;;;12.17;;
13250;SDS011;6692;50.710;7.180;2024-03-07T02:27:04;15.93;;;10.80;;
13250;SDS011;6692;50.710;7.180;2024-03-07T02:29:05;15.00;;;9.87;;
13250;SDS011;6692;50.710;7.180;2024-03-07T02:31:06;16.17;;;10.43;;
13250;SDS011;6692;50.710;7.180;2024-03-07T02:33:07;12.93;;;10.00;;
13250;SDS011;6692;50.710;7.180;2024-03-07T02:35:07;14.77;;;9.63;;
13250;SDS011;6692;50.710;7.180;2024-03-07T02:37:08;12.20;;;9.55;;
13250;SDS011;6692;50.710;7.180;2024-03-07T02:39:09;14.03;;;10.07;;
13250;SDS011;6692;50.710;7.180;2024-03-07T02:41:10;12.47;;;9.40;;
13250;SDS011;6692;50.710;7.180;2024-03-07T02:43:11;13.25;;;9.75;;
13250;SDS011;6692;50.710;7.180;2024-03-07T02:45:12;14.97;;;10.83;;
13250;SDS011;6692;50.710;7.180;2024-03-07T02:47:13;16.13;;;10.53;;
13250;SDS011;6692;50.710;7.180;2024-03-07T02:49:14;15.27;;;10.98;;
13250;SDS011;6692;50.710;7.180;2024-03-07T02:51:16;14.35;;;9.63;;
13250;SDS011;6692;50.710;7.180;2024-03-07T02:53:17;15.98;;;11.05;;
13250;SDS011;6692;50.710;7.180;2024-03-07T02:55:19;18.10;;;11.67;;
13250;SDS011;6692;50.710;7.180;2024-03-07T02:57:19;19.33;;;12.43;;
13250;SDS011;6692;50.710;7.180;2024-03-07T02:59:20;21.40;;;13.03;;
13250;SDS011;6692;50.710;7.180;2024-03-07T03:01:21;22.27;;;13.73;;
13250;SDS011;6692;50.710;7.180;2024-03-07T03:03:23;22.13;;;12.20;;
13250;SDS011;6692;50.710;7.180;2024-03-07T03:05:24;18.70;;;13.90;;
13250;SDS011;6692;50.710;7.180;2024-03-07T03:07:24;19.77;;;13.13;;
13250;SDS011;6692;50.710;7.180;2024-03-07T03:09:25;19.33;;;11.43;;
13250;SDS011;6692;50.710;7.180;2024-03-07T03:11:26;16.73;;;11.30;;
13250;SDS011;6692;50.710;7.180;2024-03-07T03:13:27;18.30;;;11.85;;
13250;SDS011;6692;50.710;7.180;2024-03-07T03:15:29;16.83;;;11.57;;
13250;SDS011;6692;50.710;7.180;2024-03-07T03:17:29;19.30;;;12.80;;
13250;SDS011;6692;50.710;7.180;2024-03-07T03:19:30;17.30;;;12.17;;
13250;SDS011;6692;50.710;7.180;2024-03-07T03:21:31;18.00;;;11.63;;
13250;SDS011;6692;50.710;7.180;2024-03-07T03:23:31;19.23;;;11.40;;
13250;SDS011;6692;50.710;7.180;2024-03-07T03:25:32;17.43;;;11.47;;
13250;SDS011;6692;50.710;7.180;2024-03-07T03:27:34;14.33;;;10.13;;
13250;SDS011;6692;50.710;7.180;2024-03-07T03:29:34;14.90;;;10.43;;
13250;SDS011;6692;50.710;7.180;2024-03-07T03:31:35;16.73;;;10.77;;
13250;SDS011;6692;50.710;7.180;2024-03-07T03:33:36;17.13;;;11.27;;
13250;SDS011;6692;50.710;7.180;2024-03-07T03:35:37;15.00;;;10.57;;
13250;SDS011;6692;50.710;7.180;2024-03-07T03:37:40;15.77;;;11.23;;
13250;SDS011;6692;50.710;7.180;2024-03-07T03:39:40;16.75;;;12.18;;
13250;SDS011;6692;50.710;7.180;2024-03-07T03:41:41;16.47;;;11.60;;
13250;SDS011;6692;50.710;7.180;2024-03-07T03:43:42;17.17;;;12.07;;
13250;SDS011;6692;50.710;7.180;2024-03-07T03:45:43;18.93;;;12.03;;
13250;SDS011;6692;50.710;7.180;2024-03-07T04:03:29;18.15;;;12.07;;
13250;SDS011;6692;50.710;7.180;2024-03-07T04:05:30;17.20;;;11.63;;
13250;SDS011;6692;50.710;7.180;2024-03-07T04:07:31;18.10;;;12.20;;
13250;SDS011;6692;50.710;7.180;2024-03-07T04:09:32;15.07;;;10.40;;
13250;SDS011;6692;50.710;7.180;2024-03-07T04:11:33;15.57;;;11.15;;
13250;SDS011;6692;50.710;7.180;2024-03-07T04:13:34;15.83;;;11.57;;
13250;SDS011;6692;50.710;7.180;2024-03-07T04:15:35;15.97;;;11.20;;
13250;SDS011;6692;50.710;7.180;2024-03-07T04:17:36;15.05;;;11.00;;
13250;SDS011;6692;50.710;7.180;2024-03-07T04:19:39;14.10;;;10.43;;
13250;SDS011;6692;50.710;7.180;2024-03-07T04:21:40;16.83;;;10.88;;
13250;SDS011;6692;50.710;7.180;2024-03-07T04:23:40;17.87;;;10.93;;
13250;SDS011;6692;50.710;7.180;2024-03-07T04:25:42;19.03;;;12.33;;
13250;SDS011;6692;50.710;7.180;2024-03-07T04:27:43;16.55;;;11.80;;
13250;SDS011;6692;50.710;7.180;2024-03-07T04:29:43;15.43;;;11.30;;
13250;SDS011;6692;50.710;7.180;2024-03-07T04:31:44;15.33;;;11.33;;
13250;SDS011;6692;50.710;7.180;2024-03-07T04:33:45;15.63;;;10.90;;
13250;SDS011;6692;50.710;7.180;2024-03-07T04:35:45;18.47;;;12.07;;
13250;SDS011;6692;50.710;7.180;2024-03-07T04:37:46;17.17;;;12.10;;
13250;SDS011;6692;50.710;7.180;2024-03-07T04:39:47;17.60;;;13.10;;
13250;SDS011;6692;50.710;7.180;2024-03-07T04:41:48;16.67;;;11.73;;
13250;SDS011;6692;50.710;7.180;2024-03-07T04:43:48;18.33;;;12.63;;
13250;SDS011;6692;50.710;7.180;2024-03-07T04:45:50;18.37;;;12.83;;
13250;SDS011;6692;50.710;7.180;2024-03-07T04:47:50;18.30;;;12.85;;
13250;SDS011;6692;50.710;7.180;2024-03-07T04:49:51;23.13;;;13.97;;
13250;SDS011;6692;50.710;7.180;2024-03-07T04:51:52;18.60;;;13.23;;
13250;SDS011;6692;50.710;7.180;2024-03-07T04:53:53;19.03;;;13.47;;
13250;SDS011;6692;50.710;7.180;2024-03-07T04:55:53;19.83;;;13.67;;
13250;SDS011;6692;50.710;7.180;2024-03-07T04:57:54;22.37;;;14.60;;
13250;SDS011;6692;50.710;7.180;2024-03-07T04:59:55;22.90;;;15.53;;
13250;SDS011;6692;50.710;7.180;2024-03-07T05:01:55;19.90;;;13.07;;
13250;SDS011;6692;50.710;7.180;2024-03-07T05:03:56;18.77;;;13.80;;
13250;SDS011;6692;50.710;7.180;2024-03-07T05:05:57;20.13;;;13.80;;
13250;SDS011;6692;50.710;7.180;2024-03-07T05:07:57;18.20;;;13.37;;
13250;SDS011;6692;50.710;7.180;2024-03-07T05:09:58;21.03;;;13.37;;
13250;SDS011;6692;50.710;7.180;2024-03-07T05:11:59;21.47;;;14.10;;
13250;SDS011;6692;50.710;7.180;2024-03-07T05:14:00;22.13;;;13.90;;
13250;SDS011;6692;50.710;7.180;2024-03-07T05:16:00;21.37;;;14.73;;
13250;SDS011;6692;50.710;7.180;2024-03-07T05:18:01;24.90;;;16.33;;
13250;SDS011;6692;50.710;7.180;2024-03-07T05:20:02;22.87;;;15.43;;
13250;SDS011;6692;50.710;7.180;2024-03-07T05:22:03;21.83;;;14.87;;
13250;SDS011;6692;50.710;7.180;2024-03-07T05:24:05;25.00;;;16.03;;
13250;SDS011;6692;50.710;7.180;2024-03-07T05:26:07;22.67;;;15.03;;
13250;SDS011;6692;50.710;7.180;2024-03-07T05:28:07;21.63;;;13.90;;
13250;SDS011;6692;50.710;7.180;2024-03-07T05:30:08;25.73;;;15.47;;
13250;SDS011;6692;50.710;7.180;2024-03-07T05:34:21;24.60;;;16.20;;
13250;SDS011;6692;50.710;7.180;2024-03-07T05:36:21;26.43;;;16.80;;
13250;SDS011;6692;50.710;7.180;2024-03-07T05:38:22;22.57;;;15.70;;
13250;SDS011;6692;50.710;7.180;2024-03-07T05:40:23;23.60;;;15.30;;
13250;SDS011;6692;50.710;7.180;2024-03-07T05:42:24;20.03;;;14.87;;
13250;SDS011;6692;50.710;7.180;2024-03-07T05:44:25;20.00;;;14.00;;
13250;SDS011;6692;50.710;7.180;2024-03-07T05:46:26;24.17;;;14.73;;
13250;SDS011;6692;50.710;7.180;2024-03-07T05:48:26;22.07;;;15.60;;
13250;SDS011;6692;50.710;7.180;2024-03-07T05:50:29;22.30;;;15.03;;
13250;SDS011;6692;50.710;7.180;2024-03-07T05:52:29;22.00;;;14.57;;
13250;SDS011;6692;50.710;7.180;2024-03-07T05:54:31;24.00;;;16.20;;
13250;SDS011;6692;50.710;7.180;2024-03-07T05:56:33;25.10;;;15.80;;
13250;SDS011;6692;50.710;7.180;2024-03-07T05:58:33;23.40;;;15.87;;
13250;SDS011;6692;50.710;7.180;2024-03-07T06:00:34;24.70;;;15.87;;
13250;SDS011;6692;50.710;7.180;2024-03-07T06:07:51;21.53;;;15.17;;
13250;SDS011;6692;50.710;7.180;2024-03-07T06:09:52;24.27;;;16.60;;
13250;SDS011;6692;50.710;7.180;2024-03-07T06:11:53;25.67;;;16.43;;
13250;SDS011;6692;50.710;7.180;2024-03-07T06:13:54;24.90;;;16.30;;
13250;SDS011;6692;50.710;7.180;2024-03-07T06:15:55;25.30;;;16.90;;
13250;SDS011;6692;50.710;7.180;2024-03-07T06:17:56;24.70;;;16.30;;
13250;SDS011;6692;50.710;7.180;2024-03-07T06:19:56;23.90;;;16.60;;
13250;SDS011;6692;50.710;7.180;2024-03-07T06:21:58;25.10;;;17.07;;
13250;SDS011;6692;50.710;7.180;2024-03-07T06:23:59;24.17;;;16.53;;
13250;SDS011;6692;50.710;7.180;2024-03-07T06:26:00;23.08;;;16.60;;
13250;SDS011;6692;50.710;7.180;2024-03-07T06:28:01;20.57;;;15.07;;
13250;SDS011;6692;50.710;7.180;2024-03-07T06:30:02;19.93;;;14.77;;
13250;SDS011;6692;50.710;7.180;2024-03-07T06:32:03;21.63;;;14.53;;
13250;SDS011;6692;50.710;7.180;2024-03-07T06:34:04;22.30;;;14.73;;
13250;SDS011;6692;50.710;7.180;2024-03-07T06:36:05;21.60;;;14.73;;
13250;SDS011;6692;50.710;7.180;2024-03-07T06:38:06;19.80;;;13.70;;
13250;SDS011;6692;50.710;7.180;2024-03-07T06:40:07;19.90;;;14.43;;
13250;SDS011;6692;50.710;7.180;2024-03-07T06:42:09;19.90;;;14.73;;
13250;SDS011;6692;50.710;7.180;2024-03-07T06:44:09;21.03;;;14.40;;
13250;SDS011;6692;50.710;7.180;2024-03-07T06:46:10;20.07;;;14.57;;
13250;SDS011;6692;50.710;7.180;2024-03-07T06:48:11;19.93;;;13.97;;
13250;SDS011;6692;50.710;7.180;2024-03-07T06:50:12;19.30;;;14.20;;
13250;SDS011;6692;50.710;7.180;2024-03-07T06:52:14;17.13;;;13.17;;
13250;SDS011;6692;50.710;7.180;2024-03-07T06:54:14;20.37;;;14.38;;
13250;SDS011;6692;50.710;7.180;2024-03-07T06:56:16;19.97;;;13.80;;
13250;SDS011;6692;50.710;7.180;2024-03-07T06:58:16;19.52;;;14.75;;
13250;SDS011;6692;50.710;7.180;2024-03-07T07:00:17;21.90;;;14.33;;
13250;SDS011;6692;50.710;7.180;2024-03-07T07:02:20;21.75;;;14.93;;
13250;SDS011;6692;50.710;7.180;2024-03-07T07:04:21;18.80;;;14.38;;
13250;SDS011;6692;50.710;7.180;2024-03-07T07:14:15;23.25;;;15.80;;
13250;SDS011;6692;50.710;7.180;2024-03-07T07:16:16;26.80;;;17.80;;
13250;SDS011;6692;50.710;7.180;2024-03-07T07:18:17;27.03;;;17.13;;
13250;SDS011;6692;50.710;7.180;2024-03-07T07:20:17;24.27;;;17.53;;
13250;SDS011;6692;50.710;7.180;2024-03-07T07:22:18;23.23;;;16.27;;
13250;SDS011;6692;50.710;7.180;2024-03-07T07:24:20;23.07;;;16.27;;
13250;SDS011;6692;50.710;7.180;2024-03-07T07:26:20;23.37;;;16.17;;
13250;SDS011;6692;50.710;7.180;2024-03-07T07:28:21;25.27;;;16.30;;
13250;SDS011;6692;50.710;7.180;2024-03-07T07:30:22;21.67;;;15.07;;
13250;SDS011;6692;50.710;7.180;2024-03-07T07:32:22;23.23;;;15.00;;
13250;SDS011;6692;50.710;7.180;2024-03-07T07:36:36;27.83;;;17.70;;
13250;SDS011;6692;50.710;7.180;2024-03-07T07:38:37;24.30;;;15.37;;
13250;SDS011;6692;50.710;7.180;2024-03-07T07:40:38;23.60;;;16.40;;
13250;SDS011;6692;50.710;7.180;2024-03-07T07:42:41;26.97;;;17.00;;
13250;SDS011;6692;50.710;7.180;2024-03-07T07:44:41;24.10;;;17.17;;
13250;SDS011;6692;50.710;7.180;2024-03-07T07:46:42;26.23;;;18.27;;
13250;SDS011;6692;50.710;7.180;2024-03-07T07:48:43;28.93;;;19.13;;
13250;SDS011;6692;50.710;7.180;2024-03-07T07:50:44;27.63;;;19.53;;
13250;SDS011;6692;50.710;7.180;2024-03-07T07:52:48;33.27;;;21.53;;
13250;SDS011;6692;50.710;7.180;2024-03-07T07:54:49;31.43;;;21.87;;
13250;SDS011;6692;50.710;7.180;2024-03-07T07:56:50;28.60;;;20.97;;
13250;SDS011;6692;50.710;7.180;2024-03-07T07:58:50;30.97;;;21.67;;
13250;SDS011;6692;50.710;7.180;2024-03-07T08:00:52;32.77;;;22.47;;
13250;SDS011;6692;50.710;7.180;2024-03-07T08:02:54;31.13;;;21.73;;
13250;SDS011;6692;50.710;7.180;2024-03-07T08:04:55;33.37;;;22.87;;
13250;SDS011;6692;50.710;7.180;2024-03-07T08:06:55;32.33;;;21.00;;
13250;SDS011;6692;50.710;7.180;2024-03-07T08:08:56;30.53;;;21.60;;
13250;SDS011;6692;50.710;7.180;2024-03-07T08:10:57;29.97;;;20.93;;
13250;SDS011;6692;50.710;7.180;2024-03-07T08:12:58;30.53;;;21.20;;
13250;SDS011;6692;50.710;7.180;2024-03-07T08:14:58;32.30;;;22.47;;
13250;SDS011;6692;50.710;7.180;2024-03-07T08:16:59;35.27;;;23.20;;
13250;SDS011;6692;50.710;7.180;2024-03-07T08:19:00;32.77;;;22.43;;
13250;SDS011;6692;50.710;7.180;2024-03-07T08:21:01;31.67;;;22.53;;
13250;SDS011;6692;50.710;7.180;2024-03-07T08:23:02;29.97;;;21.27;;
13250;SDS011;6692;50.710;7.180;2024-03-07T08:25:03;32.27;;;21.60;;
13250;SDS011;6692;50.710;7.180;2024-03-07T08:27:04;34.83;;;22.80;;
13250;SDS011;6692;50.710;7.180;2024-03-07T08:29:05;33.27;;;22.13;;
13250;SDS011;6692;50.710;7.180;2024-03-07T08:31:06;32.00;;;21.77;;
13250;SDS011;6692;50.710;7.180;2024-03-07T08:33:06;30.50;;;20.63;;
13250;SDS011;6692;50.710;7.180;2024-03-07T08:35:08;29.03;;;20.70;;
13250;SDS011;6692;50.710;7.180;2024-03-07T08:37:08;32.90;;;22.00;;
13250;SDS011;6692;50.710;7.180;2024-03-07T08:39:09;34.10;;;22.23;;
13250;SDS011;6692;50.710;7.180;2024-03-07T08:41:10;34.07;;;21.97;;
13250;SDS011;6692;50.710;7.180;2024-03-07T08:43:11;30.83;;;20.63;;
13250;SDS011;6692;50.710;7.180;2024-03-07T08:45:12;32.50;;;21.90;;
13250;SDS011;6692;50.710;7.180;2024-03-07T08:47:13;31.77;;;21.10;;
13250;SDS011;6692;50.710;7.180;2024-03-07T08:49:14;32.63;;;22.47;;
13250;SDS011;6692;50.710;7.180;2024-03-07T08:51:15;41.23;;;24.70;;
13250;SDS011;6692;50.710;7.180;2024-03-07T08:53:15;38.80;;;24.80;;
13250;SDS011;6692;50.710;7.180;2024-03-07T08:55:16;41.00;;;24.27;;
13250;SDS011;6692;50.710;7.180;2024-03-07T08:57:17;44.27;;;26.87;;
13250;SDS011;6692;50.710;7.180;2024-03-07T08:59:17;41.83;;;26.93;;
13250;SDS011;6692;50.710;7.180;2024-03-07T09:01:18;47.07;;;28.37;;
13250;SDS011;6692;50.710;7.180;2024-03-07T09:03:19;45.90;;;27.70;;
13250;SDS011;6692;50.710;7.180;2024-03-07T09:05:20;46.50;;;28.63;;
13250;SDS011;6692;50.710;7.180;2024-03-07T09:07:21;46.13;;;29.10;;
13250;SDS011;6692;50.710;7.180;2024-03-07T09:09:23;44.57;;;28.70;;
13250;SDS011;6692;50.710;7.180;2024-03-07T09:11:24;45.63;;;27.50;;
13250;SDS011;6692;50.710;7.180;2024-03-07T09:13:25;43.40;;;26.93;;
13250;SDS011;6692;50.710;7.180;2024-03-07T09:15:26;43.33;;;27.07;;
13250;SDS011;6692;50.710;7.180;2024-03-07T09:17:27;38.30;;;23.93;;
13250;SDS011;6692;50.710;7.180;2024-03-07T09:19:28;38.93;;;24.63;;
13250;SDS011;6692;50.710;7.180;2024-03-07T09:21:30;36.33;;;24.10;;
13250;SDS011;6692;50.710;7.180;2024-03-07T09:23:30;38.07;;;24.67;;
13250;SDS011;6692;50.710;7.180;2024-03-07T09:25:32;38.20;;;24.73;;
13250;SDS011;6692;50.710;7.180;2024-03-07T09:27:33;43.10;;;26.37;;
13250;SDS011;6692;50.710;7.180;2024-03-07T09:29:33;36.87;;;23.93;;
13250;SDS011;6692;50.710;7.180;2024-03-07T09:31:34;36.53;;;23.77;;
13250;SDS011;6692;50.710;7.180;2024-03-07T09:33:35;44.83;;;27.37;;
13250;SDS011;6692;50.710;7.180;2024-03-07T09:35:36;39.17;;;25.50;;
13250;SDS011;6692;50.710;7.180;2024-03-07T09:37:37;41.57;;;26.23;;
13250;SDS011;6692;50.710;7.180;2024-03-07T09:39:37;39.73;;;24.97;;
13250;SDS011;6692;50.710;7.180;2024-03-07T09:41:38;38.70;;;24.83;;
13250;SDS011;6692;50.710;7.180;2024-03-07T09:43:39;36.53;;;24.83;;
13250;SDS011;6692;50.710;7.180;2024-03-07T09:45:39;40.57;;;25.17;;
13250;SDS011;6692;50.710;7.180;2024-03-07T09:47:41;40.67;;;25.13;;
13250;SDS011;6692;50.710;7.180;2024-03-07T09:49:41;36.27;;;25.10;;
13250;SDS011;6692;50.710;7.180;2024-03-07T09:51:43;40.50;;;26.30;;
13250;SDS011;6692;50.710;7.180;2024-03-07T09:53:43;45.73;;;28.07;;
13250;SDS011;6692;50.710;7.180;2024-03-07T09:55:44;43.43;;;26.77;;
13250;SDS011;6692;50.710;7.180;2024-03-07T09:57:46;42.20;;;26.67;;
13250;SDS011;6692;50.710;7.180;2024-03-07T09:59:47;46.87;;;27.80;;
13250;SDS011;6692;50.710;7.180;2024-03-07T10:01:49;46.60;;;28.43;;
13250;SDS011;6692;50.710;7.180;2024-03-07T10:03:49;42.27;;;27.97;;
13250;SDS011;6692;50.710;7.180;2024-03-07T10:05:50;40.27;;;26.90;;
13250;SDS011;6692;50.710;7.180;2024-03-07T10:07:51;35.70;;;24.87;;
13250;SDS011;6692;50.710;7.180;2024-03-07T10:09:51;42.83;;;28.80;;
13250;SDS011;6692;50.710;7.180;2024-03-07T10:11:57;37.83;;;27.00;;
13250;SDS011;6692;50.710;7.180;2024-03-07T10:13:57;40.93;;;27.60;;
13250;SDS011;6692;50.710;7.180;2024-03-07T10:15:58;42.00;;;27.73;;
13250;SDS011;6692;50.710;7.180;2024-03-07T10:17:59;39.93;;;27.07;;
13250;SDS011;6692;50.710;7.180;2024-03-07T10:19:59;41.77;;;25.53;;
13250;SDS011;6692;50.710;7.180;2024-03-07T10:22:00;35.77;;;24.23;;
13250;SDS011;6692;50.710;7.180;2024-03-07T10:24:04;37.20;;;26.10;;
13250;SDS011;6692;50.710;7.180;2024-03-07T10:26:06;38.00;;;25.43;;
13250;SDS011;6692;50.710;7.180;2024-03-07T10:28:08;34.50;;;24.17;;
13250;SDS011;6692;50.710;7.180;2024-03-07T10:30:08;37.80;;;25.00;;
13250;SDS011;6692;50.710;7.180;2024-03-07T10:32:11;38.07;;;24.80;;
13250;SDS011;6692;50.710;7.180;2024-03-07T10:34:11;39.83;;;26.57;;
13250;SDS011;6692;50.710;7.180;2024-03-07T10:36:12;35.97;;;24.13;;
13250;SDS011;6692;50.710;7.180;2024-03-07T10:38:13;40.13;;;26.80;;
13250;SDS011;6692;50.710;7.180;2024-03-07T10:40:14;38.53;;;27.73;;
13250;SDS011;6692;50.710;7.180;2024-03-07T10:42:16;38.93;;;25.63;;
13250;SDS011;6692;50.710;7.180;2024-03-07T10:44:19;39.30;;;24.83;;
13250;SDS011;6692;50.710;7.180;2024-03-07T10:46:22;36.17;;;24.70;;
13250;SDS011;6692;50.710;7.180;2024-03-07T10:48:24;37.37;;;25.27;;
13250;SDS011;6692;50.710;7.180;2024-03-07T10:50:26;35.33;;;24.07;;
13250;SDS011;6692;50.710;7.180;2024-03-07T10:52:34;33.33;;;23.50;;
13250;SDS011;6692;50.710;7.180;2024-03-07T10:54:43;36.07;;;24.57;;
13250;SDS011;6692;50.710;7.180;2024-03-07T10:58:57;39.97;;;26.23;;
13250;SDS011;6692;50.710;7.180;2024-03-07T11:00:59;41.90;;;26.90;;
13250;SDS011;6692;50.710;7.180;2024-03-07T11:02:59;38.47;;;25.70;;
13250;SDS011;6692;50.710;7.180;2024-03-07T11:05:00;38.50;;;26.13;;
13250;SDS011;6692;50.710;7.180;2024-03-07T11:07:01;40.70;;;27.00;;
13250;SDS011;6692;50.710;7.180;2024-03-07T11:09:02;36.80;;;26.07;;
13250;SDS011;6692;50.710;7.180;2024-03-07T11:11:02;42.03;;;27.87;;
13250;SDS011;6692;50.710;7.180;2024-03-07T11:13:03;41.03;;;28.43;;
13250;SDS011;6692;50.710;7.180;2024-03-07T11:15:04;36.67;;;26.33;;
13250;SDS011;6692;50.710;7.180;2024-03-07T11:17:05;38.90;;;26.37;;
13250;SDS011;6692;50.710;7.180;2024-03-07T11:23:31;35.53;;;25.13;;
13250;SDS011;6692;50.710;7.180;2024-03-07T11:25:31;36.23;;;25.07;;
13250;SDS011;6692;50.710;7.180;2024-03-07T11:27:33;36.77;;;25.17;;
13250;SDS011;6692;50.710;7.180;2024-03-07T11:29:43;38.47;;;24.57;;
13250;SDS011;6692;50.710;7.180;2024-03-07T11:31:47;33.10;;;23.80;;
13250;SDS011;6692;50.710;7.180;2024-03-07T11:36:00;32.90;;;22.07;;
13250;SDS011;6692;50.710;7.180;2024-03-07T11:38:01;32.87;;;22.10;;
13250;SDS011;6692;50.710;7.180;2024-03-07T11:40:03;30.23;;;21.00;;
13250;SDS011;6692;50.710;7.180;2024-03-07T11:42:04;29.53;;;21.90;;
13250;SDS011;6692;50.710;7.180;2024-03-07T11:44:05;29.50;;;22.03;;
13250;SDS011;6692;50.710;7.180;2024-03-07T11:46:06;28.73;;;20.97;;
13250;SDS011;6692;50.710;7.180;2024-03-07T11:48:07;29.40;;;21.17;;
13250;SDS011;6692;50.710;7.180;2024-03-07T11:50:07;27.43;;;20.57;;
13250;SDS011;6692;50.710;7.180;2024-03-07T11:52:09;27.30;;;21.10;;
13250;SDS011;6692;50.710;7.180;2024-03-07T11:54:12;25.07;;;19.53;;
13250;SDS011;6692;50.710;7.180;2024-03-07T11:56:12;24.70;;;18.90;;
13250;SDS011;6692;50.710;7.180;2024-03-07T11:58:14;24.17;;;18.90;;
13250;SDS011;6692;50.710;7.180;2024-03-07T12:00:15;24.80;;;18.80;;
13250;SDS011;6692;50.710;7.180;2024-03-07T12:02:17;26.57;;;19.00;;
13250;SDS011;6692;50.710;7.180;2024-03-07T12:04:18;22.57;;;18.03;;
13250;SDS011;6692;50.710;7.180;2024-03-07T12:06:19;23.73;;;17.87;;
13250;SDS011;6692;50.710;7.180;2024-03-07T12:08:20;21.70;;;17.50;;
13250;SDS011;6692;50.710;7.180;2024-03-07T12:10:21;24.43;;;17.63;;
13250;SDS011;6692;50.710;7.180;2024-03-07T12:12:22;22.87;;;18.40;;
13250;SDS011;6692;50.710;7.180;2024-03-07T12:14:24;24.00;;;18.10;;
13250;SDS011;6692;50.710;7.180;2024-03-07T12:16:24;23.10;;;17.50;;
13250;SDS011;6692;50.710;7.180;2024-03-07T12:18:25;24.00;;;18.20;;
13250;SDS011;6692;50.710;7.180;2024-03-07T12:20:27;23.00;;;17.00;;
13250;SDS011;6692;50.710;7.180;2024-03-07T12:22:27;22.70;;;16.90;;
13250;SDS011;6692;50.710;7.180;2024-03-07T12:24:28;19.87;;;16.17;;
13250;SDS011;6692;50.710;7.180;2024-03-07T12:26:29;19.80;;;16.47;;
13250;SDS011;6692;50.710;7.180;2024-03-07T12:28:29;22.27;;;17.20;;
13250;SDS011;6692;50.710;7.180;2024-03-07T12:30:34;18.77;;;15.80;;
13250;SDS011;6692;50.710;7.180;2024-03-07T12:32:35;21.20;;;16.43;;
13250;SDS011;6692;50.710;7.180;2024-03-07T12:34:36;21.53;;;16.00;;
13250;SDS011;6692;50.710;7.180;2024-03-07T12:36:36;19.97;;;15.30;;
13250;SDS011;6692;50.710;7.180;2024-03-07T12:38:37;20.67;;;15.87;;
13250;SDS011;6692;50.710;7.180;2024-03-07T12:40:37;21.50;;;15.20;;
13250;SDS011;6692;50.710;7.180;2024-03-07T12:42:38;20.03;;;15.77;;
13250;SDS011;6692;50.710;7.180;2024-03-07T12:44:40;19.23;;;15.03;;
13250;SDS011;6692;50.710;7.180;2024-03-07T12:46:41;18.10;;;14.47;;
13250;SDS011;6692;50.710;7.180;2024-03-07T12:48:41;19.47;;;16.07;;
13250;SDS011;6692;50.710;7.180;2024-03-07T12:50:44;17.57;;;14.13;;